createdAt,value
2022-12-23T00:01:41.146Z,189.63
2022-12-23T00:04:10.738Z,183.63
2022-12-23T00:06:39.357Z,167.38
2022-12-23T00:09:09.448Z,172.50
2022-12-23T00:11:58.036Z,152.73
2022-12-23T00:14:44.114Z,144.48
2022-12-23T00:17:29.152Z,176.98
2022-12-23T00:19:57.877Z,203.38
2022-12-23T00:22:43.115Z,247.50
2022-12-23T00:25:15.333Z,133.55
2022-12-23T00:28:01.434Z,236.65
2022-12-23T00:30:39.547Z,154.82
2022-12-23T00:33:12.362Z,181.45
2022-12-23T00:35:41.427Z,136.63
2022-12-23T00:38:10.195Z,73.15
2022-12-23T00:40:59.754Z,59.85
2022-12-23T00:43:28.774Z,63.42
2022-12-23T00:45:59.447Z,59.17
2022-12-23T00:48:45.752Z,63.50
2022-12-23T00:51:19.981Z,56.13
2022-12-23T00:53:48.577Z,58.63
2022-12-23T00:56:18.657Z,56.45
2022-12-23T00:58:52.099Z,56.30
2022-12-23T01:01:38.415Z,58.33
2022-12-23T01:04:24.868Z,66.22
2022-12-23T01:06:54.605Z,72.28
2022-12-23T01:09:23.165Z,75.10
2022-12-23T01:11:59.158Z,74.28
2022-12-23T01:14:29.159Z,71.72
2022-12-23T01:16:59.031Z,72.63
2022-12-23T01:19:29.931Z,72.20
2022-12-23T01:21:58.626Z,73.18
2022-12-23T01:24:29.690Z,71.55
2022-12-23T01:26:59.856Z,68.82
2022-12-23T01:29:31.411Z,62.75
2022-12-23T01:32:01.207Z,61.45
2022-12-23T01:34:36.028Z,66.97
2022-12-23T01:37:06.082Z,59.40
2022-12-23T01:39:39.553Z,67.90
2022-12-23T01:42:31.206Z,61.60
2022-12-23T01:45:03.623Z,64.53
2022-12-23T01:47:39.338Z,60.67
2022-12-23T01:50:25.139Z,54.35
2022-12-23T01:53:07.276Z,55.95
2022-12-23T01:55:43.767Z,61.20
2022-12-23T01:58:18.862Z,67.55
2022-12-23T02:01:07.552Z,61.65
2022-12-23T02:03:45.889Z,59.85
2022-12-23T02:06:40.018Z,61.47
2022-12-23T02:09:20.905Z,60.10
2022-12-23T02:12:22.211Z,57.97
2022-12-23T02:15:38.114Z,53.08
2022-12-23T02:18:38.090Z,49.53
2022-12-23T02:21:38.191Z,49.47
2022-12-23T02:24:50.952Z,46.55
2022-12-23T02:27:28.752Z,51.70
2022-12-23T02:30:26.314Z,51.30
2022-12-23T02:33:18.184Z,66.03
2022-12-23T02:36:01.429Z,60.05
2022-12-23T02:38:37.002Z,64.72
2022-12-23T02:41:31.629Z,65.15
2022-12-23T02:44:05.345Z,70.32
2022-12-23T02:46:43.857Z,69.03
2022-12-23T02:49:18.812Z,61.88
2022-12-23T02:51:52.165Z,66.50
2022-12-23T02:54:28.171Z,66.50
2022-12-23T02:56:58.768Z,54.47
2022-12-23T02:59:29.680Z,59.05
2022-12-23T03:02:05.756Z,51.92
2022-12-23T03:04:53.675Z,61.20
2022-12-23T03:07:33.327Z,57.85
2022-12-23T03:10:10.104Z,56.75
2022-12-23T03:12:51.763Z,61.55
2022-12-23T03:15:33.662Z,56.65
2022-12-23T03:18:13.232Z,57.65
2022-12-23T03:20:52.245Z,60.95
2022-12-23T03:23:26.978Z,58.70
2022-12-23T03:26:13.987Z,55.75
2022-12-23T03:28:49.239Z,53.17
2022-12-23T03:31:26.408Z,57.55
2022-12-23T03:34:01.204Z,59.03
2022-12-23T03:36:34.157Z,52.75
2022-12-23T03:39:07.469Z,54.17
2022-12-23T03:41:42.540Z,56.33
2022-12-23T03:44:15.544Z,47.63
2022-12-23T03:46:54.606Z,56.10
2022-12-23T03:49:33.601Z,56.92
2022-12-23T03:52:08.216Z,55.03
2022-12-23T03:54:42.925Z,54.47
2022-12-23T03:57:13.882Z,50.10
2022-12-23T03:59:55.810Z,52.55
2022-12-23T04:02:32.943Z,49.75
2022-12-23T04:05:17.859Z,52.95
2022-12-23T04:07:52.187Z,45.85
2022-12-23T04:10:22.281Z,50.30
2022-12-23T04:12:52.153Z,47.13
2022-12-23T04:15:22.625Z,44.40
2022-12-23T04:17:53.681Z,41.25
2022-12-23T04:20:23.991Z,42.97
2022-12-23T04:23:01.409Z,41.03
2022-12-23T04:25:40.606Z,32.95
2022-12-23T04:28:11.421Z,37.38
2022-12-23T04:30:47.209Z,39.40
2022-12-23T04:33:15.890Z,36.05
2022-12-23T04:35:47.117Z,38.47
2022-12-23T04:38:17.784Z,32.85
2022-12-23T04:40:48.589Z,39.72
2022-12-23T04:43:19.299Z,31.35
2022-12-23T04:45:52.700Z,33.00
2022-12-23T04:48:21.557Z,35.95
2022-12-23T04:50:51.582Z,31.50
2022-12-23T04:53:24.209Z,30.85
2022-12-23T04:55:53.351Z,27.52
2022-12-23T04:58:25.268Z,28.85
2022-12-23T05:01:14.054Z,20.52
2022-12-23T05:03:43.938Z,17.25
2022-12-23T05:06:16.117Z,15.30
2022-12-23T05:08:50.813Z,17.88
2022-12-23T05:11:19.553Z,13.98
2022-12-23T05:13:48.118Z,8.93
2022-12-23T05:16:17.909Z,14.32
2022-12-23T05:18:46.663Z,15.32
2022-12-23T05:21:16.606Z,20.85
2022-12-23T05:23:45.160Z,19.95
2022-12-23T05:26:16.012Z,13.18
2022-12-23T05:28:49.962Z,17.65
2022-12-23T05:31:19.510Z,17.25
2022-12-23T05:33:48.368Z,21.65
2022-12-23T05:36:18.280Z,19.80
2022-12-23T05:38:49.785Z,27.30
2022-12-23T05:41:19.026Z,24.63
2022-12-23T05:43:47.626Z,14.70
2022-12-23T05:46:22.653Z,16.63
2022-12-23T05:48:55.791Z,19.75
2022-12-23T05:51:31.795Z,20.73
2022-12-23T05:54:01.604Z,21.40
2022-12-23T05:56:32.014Z,14.43
2022-12-23T05:59:02.756Z,21.25
2022-12-23T06:01:31.424Z,25.20
2022-12-23T06:04:00.079Z,27.02
2022-12-23T06:06:33.340Z,21.95
2022-12-23T06:09:02.392Z,13.15
2022-12-23T06:11:32.016Z,20.52
2022-12-23T06:14:00.610Z,28.05
2022-12-23T06:16:30.198Z,21.17
2022-12-23T06:18:58.652Z,18.17
2022-12-23T06:21:28.272Z,10.02
2022-12-23T06:23:59.539Z,19.30
2022-12-23T06:26:29.335Z,9.38
2022-12-23T06:28:57.985Z,14.80
2022-12-23T06:31:27.649Z,8.27
2022-12-23T06:33:56.376Z,12.05
2022-12-23T06:36:31.890Z,15.60
2022-12-23T06:39:02.032Z,7.75
2022-12-23T06:41:31.589Z,11.13
2022-12-23T06:44:00.182Z,12.38
2022-12-23T06:46:30.008Z,9.52
2022-12-23T06:48:59.634Z,11.38
2022-12-23T06:51:33.330Z,9.70
2022-12-23T06:54:04.855Z,10.77
2022-12-23T06:56:35.559Z,11.55
2022-12-23T06:59:04.178Z,12.45
2022-12-23T07:01:33.022Z,15.10
2022-12-23T07:04:02.368Z,8.02
2022-12-23T07:06:31.935Z,9.52
2022-12-23T07:09:01.680Z,10.60
2022-12-23T07:11:33.023Z,12.50
2022-12-23T07:14:04.510Z,17.02
2022-12-23T07:16:33.275Z,14.30
2022-12-23T07:19:11.221Z,13.30
2022-12-23T07:21:40.878Z,9.13
2022-12-23T07:24:10.255Z,12.60
2022-12-23T07:26:42.325Z,13.18
2022-12-23T07:29:13.016Z,10.65
2022-12-23T07:31:41.732Z,14.50
2022-12-23T07:34:12.406Z,13.23
2022-12-23T07:36:41.145Z,15.23
2022-12-23T07:39:10.359Z,16.65
2022-12-23T07:41:42.608Z,13.50
2022-12-23T07:44:15.885Z,18.45
2022-12-23T07:46:45.647Z,14.18
2022-12-23T07:49:16.600Z,18.90
2022-12-23T07:51:45.231Z,14.93
2022-12-23T07:54:14.928Z,8.98
2022-12-23T07:56:45.021Z,25.00
2022-12-23T07:59:14.748Z,17.75
2022-12-23T08:01:43.653Z,21.27
2022-12-23T08:04:13.441Z,21.02
2022-12-23T08:06:42.616Z,20.40
2022-12-23T08:09:11.293Z,21.45
2022-12-23T08:11:40.915Z,18.08
2022-12-23T08:14:12.296Z,20.50
2022-12-23T08:16:46.946Z,24.05
2022-12-23T08:19:15.936Z,17.63
2022-12-23T08:21:44.574Z,16.92
2022-12-23T08:24:14.220Z,17.85
2022-12-23T08:26:52.780Z,13.75
2022-12-23T08:29:24.870Z,12.32
2022-12-23T08:31:56.185Z,12.10
2022-12-23T08:34:25.837Z,14.63
2022-12-23T08:37:00.544Z,16.88
2022-12-23T08:39:29.310Z,12.43
2022-12-23T08:41:59.056Z,19.45
2022-12-23T08:44:30.026Z,17.70
2022-12-23T08:46:59.775Z,20.60
2022-12-23T08:49:29.430Z,15.30
2022-12-23T08:51:58.327Z,24.20
2022-12-23T08:54:27.334Z,22.60
2022-12-23T08:56:56.108Z,34.83
2022-12-23T08:59:25.364Z,23.10
2022-12-23T09:01:59.946Z,26.42
2022-12-23T09:04:29.589Z,22.05
2022-12-23T09:06:58.271Z,23.50
2022-12-23T09:09:26.982Z,18.83
2022-12-23T09:11:57.661Z,16.55
2022-12-23T09:14:27.618Z,21.95
2022-12-23T09:16:59.468Z,23.90
2022-12-23T09:19:28.160Z,20.55
2022-12-23T09:21:59.607Z,18.08
2022-12-23T09:24:30.232Z,30.85
2022-12-23T09:26:58.780Z,22.85
2022-12-23T09:29:27.519Z,18.98
2022-12-23T09:31:56.294Z,15.30
2022-12-23T09:34:28.498Z,13.77
2022-12-23T09:36:58.637Z,18.27
2022-12-23T09:39:28.259Z,23.33
2022-12-23T09:42:07.790Z,14.38
2022-12-23T09:45:00.035Z,19.98
2022-12-23T09:47:33.423Z,18.80
2022-12-23T09:50:14.792Z,15.13
2022-12-23T09:52:51.546Z,12.45
2022-12-23T09:55:35.953Z,23.08
2022-12-23T09:58:23.210Z,19.15
2022-12-23T10:01:12.471Z,24.65
2022-12-23T10:04:00.284Z,16.00
2022-12-23T10:06:41.860Z,17.80
2022-12-23T10:09:12.062Z,16.27
2022-12-23T10:11:45.578Z,19.85
2022-12-23T10:14:21.455Z,26.75
2022-12-23T10:16:53.850Z,25.67
2022-12-23T10:19:33.880Z,14.52
2022-12-23T10:22:06.601Z,20.42
2022-12-23T10:24:39.960Z,13.05
2022-12-23T10:27:23.901Z,16.58
2022-12-23T10:29:52.771Z,13.57
2022-12-23T10:32:30.460Z,22.60
2022-12-23T10:35:07.829Z,23.45
2022-12-23T10:37:44.791Z,18.05
2022-12-23T10:40:19.639Z,18.63
2022-12-23T10:43:09.850Z,20.08
2022-12-23T10:45:50.208Z,18.85
2022-12-23T10:48:31.832Z,20.58
2022-12-23T10:51:06.410Z,22.15
2022-12-23T10:53:42.025Z,22.17
2022-12-23T10:56:10.842Z,18.25
2022-12-23T10:58:43.961Z,20.08
2022-12-23T11:01:24.069Z,21.38
2022-12-23T11:04:03.488Z,15.45
2022-12-23T11:06:37.555Z,13.18
2022-12-23T11:09:15.654Z,17.08
2022-12-23T11:12:02.589Z,19.58
2022-12-23T11:14:35.307Z,20.13
2022-12-23T11:17:05.348Z,19.52
2022-12-23T11:19:34.163Z,27.83
2022-12-23T11:22:03.209Z,24.02
2022-12-23T11:24:41.147Z,21.35
2022-12-23T11:27:17.813Z,19.73
2022-12-23T11:29:49.816Z,19.65
2022-12-23T11:32:22.619Z,25.60
2022-12-23T11:34:53.081Z,19.92
2022-12-23T11:37:31.553Z,25.02
2022-12-23T11:40:02.158Z,23.80
2022-12-23T11:42:32.444Z,30.98
2022-12-23T11:45:02.100Z,16.95
2022-12-23T11:47:37.971Z,26.75
2022-12-23T11:50:28.771Z,19.27
2022-12-23T11:53:05.394Z,19.80
2022-12-23T11:55:35.687Z,23.23
2022-12-23T11:58:05.251Z,31.27
2022-12-23T12:00:42.307Z,15.43
2022-12-23T12:03:20.345Z,21.08
2022-12-23T12:05:53.240Z,25.20
2022-12-23T12:08:25.076Z,18.80
2022-12-23T12:11:01.665Z,23.92
2022-12-23T12:13:32.396Z,23.25
2022-12-23T12:16:22.424Z,26.23
2022-12-23T12:18:55.683Z,20.20
2022-12-23T12:21:30.266Z,23.83
2022-12-23T12:24:20.268Z,28.83
2022-12-23T12:26:54.196Z,21.80
2022-12-23T12:29:29.176Z,10.25
2022-12-23T12:32:01.219Z,14.15
2022-12-23T12:34:43.323Z,12.05
2022-12-23T12:37:24.146Z,13.95
2022-12-23T12:39:58.565Z,16.40
2022-12-23T12:42:59.042Z,17.35
2022-12-23T12:49:48.859Z,11.95
2022-12-23T12:52:22.344Z,8.65
2022-12-23T12:54:56.607Z,8.65
2022-12-23T12:57:26.574Z,6.95
2022-12-23T13:00:05.661Z,8.10
2022-12-23T13:02:57.199Z,8.18
2022-12-23T13:05:40.933Z,4.85
2022-12-23T13:08:22.440Z,5.25
2022-12-23T13:10:53.456Z,4.90
2022-12-23T13:13:34.158Z,5.70
2022-12-23T13:16:13.005Z,8.00
2022-12-23T13:18:51.671Z,5.07
2022-12-23T13:21:27.721Z,7.05
2022-12-23T13:24:06.669Z,9.13
2022-12-23T13:26:41.334Z,5.95
2022-12-23T13:29:38.627Z,11.13
2022-12-23T13:32:23.763Z,9.57
2022-12-23T13:35:01.394Z,6.88
2022-12-23T13:37:38.043Z,9.57
2022-12-23T13:40:30.580Z,7.70
2022-12-23T13:43:04.977Z,12.25
2022-12-23T13:45:39.950Z,9.35
2022-12-23T13:48:28.477Z,11.57
2022-12-23T13:51:01.805Z,10.52
2022-12-23T13:53:44.480Z,14.30
2022-12-23T13:56:24.149Z,10.40
2022-12-23T13:58:53.891Z,11.40
2022-12-23T14:01:37.580Z,14.02
2022-12-23T14:04:39.091Z,13.98
2022-12-23T14:07:21.951Z,16.30
2022-12-23T14:09:55.236Z,13.02
2022-12-23T14:12:28.932Z,16.20
2022-12-23T14:15:21.456Z,17.70
2022-12-23T14:18:04.605Z,19.80
2022-12-23T14:20:50.299Z,15.32
2022-12-23T14:23:33.447Z,19.83
2022-12-23T14:26:38.035Z,21.83
2022-12-23T14:29:19.967Z,21.33
2022-12-23T14:31:56.772Z,20.02
2022-12-23T14:34:30.586Z,21.10
2022-12-23T14:37:31.457Z,32.28
2022-12-23T14:40:39.860Z,25.27
2022-12-23T14:43:53.352Z,34.65
2022-12-23T14:46:58.620Z,37.30
2022-12-23T14:49:48.217Z,48.30
2022-12-23T14:52:49.530Z,37.85
2022-12-23T14:55:45.865Z,46.22
2022-12-23T14:58:54.601Z,38.40
2022-12-23T15:01:29.260Z,38.25
2022-12-23T15:04:01.525Z,27.13
2022-12-23T15:06:36.772Z,35.88
2022-12-23T15:09:07.637Z,37.20
2022-12-23T15:11:38.648Z,35.15
2022-12-23T15:14:16.228Z,30.90
2022-12-23T15:16:46.678Z,36.47
2022-12-23T15:19:23.838Z,37.33
2022-12-23T15:22:14.987Z,39.10
2022-12-23T15:24:48.254Z,39.40
2022-12-23T15:27:29.656Z,35.33
2022-12-23T15:29:59.787Z,40.13
2022-12-23T15:32:30.682Z,44.08
2022-12-23T15:35:05.281Z,39.22
2022-12-23T15:37:35.074Z,32.83
2022-12-23T15:40:12.034Z,37.35
2022-12-23T15:42:48.974Z,33.85
2022-12-23T15:45:33.330Z,31.98
2022-12-23T15:48:04.859Z,32.25
2022-12-23T15:50:41.987Z,38.15
2022-12-23T15:53:17.530Z,29.83
2022-12-23T15:55:46.999Z,42.00
2022-12-23T15:58:26.105Z,45.33
2022-12-23T16:00:57.980Z,40.30
2022-12-23T16:03:31.938Z,36.47
2022-12-23T16:06:10.139Z,35.70
2022-12-23T16:08:41.019Z,35.88
2022-12-23T16:11:16.980Z,33.22
2022-12-23T16:13:59.578Z,32.13
2022-12-23T16:16:39.724Z,44.75
2022-12-23T16:19:28.993Z,44.67
2022-12-23T16:21:57.571Z,51.65
2022-12-23T16:24:26.180Z,41.17
2022-12-23T16:26:56.990Z,43.70
2022-12-23T16:29:26.901Z,42.65
2022-12-23T16:32:01.740Z,48.83
2022-12-23T16:34:32.406Z,44.33
2022-12-23T16:37:01.712Z,45.45
2022-12-23T16:39:30.272Z,36.90
2022-12-23T16:41:58.668Z,41.90
2022-12-23T16:44:28.451Z,37.38
2022-12-23T16:46:56.927Z,43.30
2022-12-23T16:49:33.214Z,45.25
2022-12-23T16:52:02.385Z,34.47
2022-12-23T16:54:31.328Z,40.67
2022-12-23T16:57:00.213Z,37.17
2022-12-23T16:59:30.540Z,33.22
2022-12-23T17:02:03.526Z,40.85
2022-12-23T17:04:33.597Z,30.50
2022-12-23T17:07:02.458Z,41.78
2022-12-23T17:09:31.080Z,43.38
2022-12-23T17:11:59.709Z,39.17
2022-12-23T17:14:29.838Z,40.33
2022-12-23T17:16:58.877Z,35.20
2022-12-23T17:19:29.826Z,38.88
2022-12-23T17:22:03.501Z,38.13
2022-12-23T17:24:32.067Z,35.60
2022-12-23T17:27:00.993Z,33.97
2022-12-23T17:29:31.058Z,40.25
2022-12-23T17:31:59.768Z,39.42
2022-12-23T17:34:28.497Z,33.90
2022-12-23T17:36:58.854Z,39.47
2022-12-23T17:39:27.883Z,34.90
2022-12-23T17:41:57.424Z,33.95
2022-12-23T17:44:26.290Z,41.13
2022-12-23T17:46:56.607Z,30.55
2022-12-23T17:49:25.284Z,36.33
2022-12-23T17:51:53.932Z,40.42
2022-12-23T17:54:25.460Z,50.63
2022-12-23T17:56:53.955Z,38.08
2022-12-23T17:59:22.999Z,36.60
2022-12-23T18:01:51.955Z,38.67
2022-12-23T18:04:22.987Z,47.78
2022-12-23T18:06:51.593Z,46.03
2022-12-23T18:09:21.816Z,40.75
2022-12-23T18:11:50.543Z,42.83
2022-12-23T18:14:25.441Z,45.30
2022-12-23T18:16:54.300Z,39.45
2022-12-23T18:19:24.435Z,48.30
2022-12-23T18:21:54.243Z,45.88
2022-12-23T18:24:22.751Z,39.53
2022-12-23T18:26:51.610Z,42.13
2022-12-23T18:29:21.969Z,46.63
2022-12-23T18:31:52.325Z,34.95
2022-12-23T18:34:21.494Z,40.42
2022-12-23T18:36:53.177Z,39.03
2022-12-23T18:39:21.981Z,36.70
2022-12-23T18:41:50.761Z,35.90
2022-12-23T18:44:21.589Z,37.10
2022-12-23T18:46:51.155Z,43.28
2022-12-23T18:49:19.831Z,36.67
2022-12-23T18:51:48.817Z,38.42
2022-12-23T18:54:19.829Z,43.85
2022-12-23T18:56:49.650Z,28.83
2022-12-23T18:59:24.277Z,37.58
2022-12-23T19:01:57.973Z,26.70
2022-12-23T19:04:26.928Z,38.78
2022-12-23T19:06:56.704Z,42.53
2022-12-23T19:09:28.413Z,45.95
2022-12-23T19:11:58.863Z,40.80
2022-12-23T19:14:28.236Z,46.67
2022-12-23T19:17:00.456Z,40.20
2022-12-23T19:19:29.295Z,50.35
2022-12-23T19:21:59.072Z,48.70
2022-12-23T19:24:31.191Z,46.17
2022-12-23T19:27:00.886Z,45.95
2022-12-23T19:29:30.339Z,46.80
2022-12-23T19:31:59.270Z,33.75
2022-12-23T19:34:27.963Z,38.70
2022-12-23T19:36:57.948Z,33.58
2022-12-23T19:39:27.679Z,39.55
2022-12-23T19:41:59.708Z,36.92
2022-12-23T19:44:28.670Z,34.78
2022-12-23T19:46:57.580Z,32.60
2022-12-23T19:49:26.990Z,36.50
2022-12-23T19:51:55.970Z,33.53
2022-12-23T19:54:24.542Z,36.78
2022-12-23T19:56:54.765Z,35.05
2022-12-23T19:59:26.917Z,42.35
2022-12-23T20:01:55.851Z,37.42
2022-12-23T20:04:25.341Z,39.92
2022-12-23T20:06:54.287Z,32.42
2022-12-23T20:09:23.350Z,34.65
2022-12-23T20:11:51.960Z,29.58
2022-12-23T20:14:22.025Z,38.90
2022-12-23T20:16:51.920Z,34.55
2022-12-23T20:19:20.517Z,34.30
2022-12-23T20:21:50.502Z,31.90
2022-12-23T20:24:19.273Z,38.33
2022-12-23T20:26:48.034Z,42.92
2022-12-23T20:29:16.490Z,32.17
2022-12-23T20:31:45.291Z,33.92
2022-12-23T20:34:18.293Z,43.35
2022-12-23T20:36:47.146Z,33.25
2022-12-23T20:39:15.985Z,35.38
2022-12-23T20:41:45.695Z,32.78
2022-12-23T20:47:02.930Z,39.88
2022-12-23T20:49:34.274Z,33.83
2022-12-23T20:52:03.076Z,36.03
2022-12-23T20:54:33.667Z,36.30
2022-12-23T20:57:04.187Z,29.88
2022-12-23T20:59:33.697Z,30.77
2022-12-23T21:02:02.386Z,30.35
2022-12-23T21:04:31.248Z,32.15
2022-12-23T21:07:01.610Z,27.13
2022-12-23T21:09:30.268Z,41.00
2022-12-23T21:11:58.984Z,26.45
2022-12-23T21:14:27.880Z,32.22
2022-12-23T21:16:56.478Z,37.25
2022-12-23T21:19:27.269Z,35.35
2022-12-23T21:21:56.117Z,32.42
2022-12-23T21:24:26.309Z,28.73
2022-12-23T21:26:57.258Z,34.22
2022-12-23T21:29:26.641Z,34.58
2022-12-23T21:31:56.250Z,33.88
2022-12-23T21:34:25.604Z,32.63
2022-12-23T21:36:54.259Z,35.78
2022-12-23T21:39:22.906Z,33.97
2022-12-23T21:41:53.513Z,34.03
2022-12-23T21:44:22.176Z,31.73
2022-12-23T21:46:52.663Z,27.63
2022-12-23T21:49:21.895Z,31.20
2022-12-23T21:51:51.831Z,32.88
2022-12-23T21:54:20.957Z,40.10
2022-12-23T21:56:49.853Z,40.97
2022-12-23T21:59:19.709Z,29.92
2022-12-23T22:01:49.269Z,33.10
2022-12-23T22:04:17.908Z,32.47
2022-12-23T22:06:48.000Z,23.50
2022-12-23T22:09:20.046Z,24.60
2022-12-23T22:11:49.675Z,29.25
2022-12-23T22:14:21.517Z,20.60
2022-12-23T22:16:52.292Z,18.67
2022-12-23T22:19:22.595Z,24.38
2022-12-23T22:21:51.403Z,24.42
2022-12-23T22:24:20.399Z,22.85
2022-12-23T22:26:48.931Z,24.17
2022-12-23T22:29:19.037Z,20.70
2022-12-23T22:31:53.406Z,21.20
2022-12-23T22:34:25.392Z,25.10
2022-12-23T22:36:54.756Z,18.95
2022-12-23T22:39:24.254Z,18.38
2022-12-23T22:41:55.338Z,20.45
2022-12-23T22:44:24.586Z,22.77
2022-12-23T22:46:54.516Z,20.42
2022-12-23T22:49:27.261Z,21.13
2022-12-23T22:51:56.244Z,21.40
2022-12-23T22:54:31.300Z,19.83
2022-12-23T22:57:00.526Z,15.52
2022-12-23T22:59:29.340Z,18.45
2022-12-23T23:01:59.275Z,18.10
2022-12-23T23:04:28.030Z,19.58
2022-12-23T23:06:56.703Z,20.27
2022-12-23T23:09:25.172Z,22.02
2022-12-23T23:11:53.704Z,15.25
2022-12-23T23:14:23.437Z,19.67
2022-12-23T23:16:52.067Z,18.90
2022-12-23T23:19:22.269Z,17.73
2022-12-23T23:21:50.858Z,18.52
2022-12-23T23:24:19.855Z,15.35
2022-12-23T23:26:48.482Z,20.48
2022-12-23T23:29:17.248Z,13.98
2022-12-23T23:31:46.226Z,10.82
2022-12-23T23:34:14.971Z,9.90
2022-12-23T23:36:45.256Z,8.23
2022-12-23T23:39:14.551Z,9.80
2022-12-23T23:41:43.500Z,8.13
2022-12-23T23:44:12.820Z,10.85
2022-12-23T23:46:41.504Z,11.20
2022-12-23T23:49:10.094Z,11.57
2022-12-23T23:51:38.759Z,12.18
2022-12-23T23:54:10.451Z,8.25
2022-12-23T23:56:39.863Z,10.77
2022-12-23T23:59:09.387Z,12.75
